createdAt,value
2022-11-08T00:01:05.058Z,0
2022-11-08T00:03:31.153Z,0
2022-11-08T00:05:57.243Z,0
2022-11-08T00:08:23.355Z,0
2022-11-08T00:10:49.447Z,0
2022-11-08T00:13:15.528Z,0
2022-11-08T00:15:41.639Z,0
2022-11-08T00:18:07.791Z,0
2022-11-08T00:20:33.854Z,0
2022-11-08T00:22:59.920Z,0
2022-11-08T00:25:26.015Z,0
2022-11-08T00:27:52.155Z,0
2022-11-08T00:30:17.254Z,0
2022-11-08T00:32:43.306Z,0
2022-11-08T00:35:09.435Z,0
2022-11-08T00:37:35.506Z,0
2022-11-08T00:40:01.616Z,0
2022-11-08T00:42:27.710Z,0
2022-11-08T00:44:53.809Z,0
2022-11-08T00:47:19.918Z,0
2022-11-08T00:49:45.989Z,0
2022-11-08T00:52:12.611Z,0
2022-11-08T00:54:38.181Z,0
2022-11-08T00:57:04.272Z,0
2022-11-08T00:59:30.369Z,0
2022-11-08T01:01:55.485Z,0
2022-11-08T01:04:21.579Z,0
2022-11-08T01:06:47.716Z,0
2022-11-08T01:09:13.827Z,0
2022-11-08T01:11:39.914Z,0
2022-11-08T01:14:06.013Z,0
2022-11-08T01:16:32.092Z,0
2022-11-08T01:18:58.162Z,0
2022-11-08T01:21:24.252Z,0
2022-11-08T01:23:50.352Z,0
2022-11-08T01:26:16.554Z,0
2022-11-08T01:28:42.540Z,0
2022-11-08T01:31:08.658Z,0
2022-11-08T01:33:33.741Z,0
2022-11-08T01:35:59.840Z,0
2022-11-08T01:38:25.942Z,0
2022-11-08T01:40:52.032Z,0
2022-11-08T01:43:18.130Z,0
2022-11-08T01:45:44.222Z,0
2022-11-08T01:48:10.329Z,0
2022-11-08T01:50:36.420Z,0
2022-11-08T01:53:02.499Z,0
2022-11-08T01:55:28.609Z,0
2022-11-08T01:57:54.703Z,0
2022-11-08T02:00:20.810Z,0
2022-11-08T02:02:46.912Z,0
2022-11-08T02:05:12.013Z,0
2022-11-08T02:07:38.089Z,0
2022-11-08T02:10:04.195Z,0
2022-11-08T02:12:30.294Z,0
2022-11-08T02:14:56.503Z,0
2022-11-08T02:17:22.539Z,0
2022-11-08T02:19:48.566Z,0
2022-11-08T02:22:14.688Z,0
2022-11-08T02:24:40.789Z,0
2022-11-08T02:27:06.854Z,0
2022-11-08T02:29:32.957Z,0
2022-11-08T02:31:59.077Z,0
2022-11-08T02:34:25.151Z,0
2022-11-08T02:36:50.265Z,0
2022-11-08T02:39:16.387Z,0
2022-11-08T02:41:42.451Z,0
2022-11-08T02:44:08.537Z,0
2022-11-08T02:46:34.643Z,0
2022-11-08T02:49:00.750Z,0
2022-11-08T02:51:26.835Z,0
2022-11-08T02:53:52.932Z,0
2022-11-08T02:56:19.036Z,0
2022-11-08T02:58:45.156Z,0
2022-11-08T03:01:11.249Z,0
2022-11-08T03:03:37.341Z,0
2022-11-08T03:06:03.460Z,0
2022-11-08T03:08:28.530Z,0
2022-11-08T03:10:54.617Z,0
2022-11-08T03:13:20.773Z,0
2022-11-08T03:15:46.813Z,0
2022-11-08T03:18:12.902Z,0
2022-11-08T03:20:38.997Z,0
2022-11-08T03:23:04.139Z,0
2022-11-08T03:25:30.214Z,0
2022-11-08T03:27:56.308Z,0
2022-11-08T03:30:22.410Z,0
2022-11-08T03:32:48.506Z,0
2022-11-08T03:35:14.604Z,0
2022-11-08T03:37:40.698Z,0
2022-11-08T03:40:06.790Z,0
2022-11-08T03:42:32.875Z,0
2022-11-08T03:44:58.973Z,0
2022-11-08T03:47:25.083Z,0
2022-11-08T03:49:51.184Z,0
2022-11-08T03:52:17.266Z,0
2022-11-08T03:54:42.363Z,0
2022-11-08T03:57:08.475Z,0
2022-11-08T03:59:34.565Z,0
2022-11-08T04:02:00.674Z,0
2022-11-08T04:04:26.772Z,0
2022-11-08T04:06:52.850Z,0
2022-11-08T04:09:18.970Z,0
2022-11-08T04:11:45.048Z,0
2022-11-08T04:14:11.153Z,0
2022-11-08T04:16:37.232Z,0
2022-11-08T04:19:03.337Z,0
2022-11-08T04:21:29.435Z,0
2022-11-08T04:23:55.533Z,0
2022-11-08T04:26:20.650Z,0
2022-11-08T04:28:46.720Z,0
2022-11-08T04:31:12.825Z,0
2022-11-08T04:33:38.929Z,0
2022-11-08T04:36:05.010Z,0
2022-11-08T04:38:31.104Z,0
2022-11-08T04:40:57.212Z,0
2022-11-08T04:43:23.308Z,0
2022-11-08T04:45:49.400Z,0
2022-11-08T04:48:15.505Z,0
2022-11-08T04:50:41.598Z,0
2022-11-08T04:53:07.693Z,0
2022-11-08T04:55:33.780Z,0
2022-11-08T04:57:58.891Z,0
2022-11-08T05:00:24.996Z,0
2022-11-08T05:02:51.100Z,0
2022-11-08T05:05:17.213Z,0
2022-11-08T05:07:43.281Z,0
2022-11-08T05:10:09.373Z,0
2022-11-08T05:12:35.469Z,0
2022-11-08T05:15:01.568Z,0
2022-11-08T05:17:27.669Z,0
2022-11-08T05:19:53.807Z,0
2022-11-08T05:22:19.855Z,0
2022-11-08T05:24:45.952Z,0
2022-11-08T05:27:12.051Z,0
2022-11-08T05:29:37.167Z,0
2022-11-08T05:32:03.327Z,0
2022-11-08T05:34:29.346Z,0
2022-11-08T05:36:55.443Z,0
2022-11-08T05:39:21.544Z,0
2022-11-08T05:41:47.743Z,0
2022-11-08T05:44:13.897Z,0
2022-11-08T05:46:39.998Z,0
2022-11-08T05:49:06.129Z,0
2022-11-08T05:51:32.207Z,0
2022-11-08T05:53:58.276Z,0
2022-11-08T05:56:24.398Z,0
2022-11-08T05:58:50.442Z,0
2022-11-08T06:01:15.607Z,0
2022-11-08T06:03:41.735Z,0
2022-11-08T06:06:07.909Z,0
2022-11-08T06:08:33.911Z,0
2022-11-08T06:10:59.970Z,0
2022-11-08T06:13:26.049Z,5
2022-11-08T06:15:51.996Z,5
2022-11-08T06:18:18.280Z,5
2022-11-08T06:20:44.321Z,5
2022-11-08T06:23:10.423Z,11
2022-11-08T06:25:36.556Z,11
2022-11-08T06:28:02.480Z,11
2022-11-08T06:30:28.590Z,16
2022-11-08T06:32:53.871Z,16
2022-11-08T06:35:19.881Z,16
2022-11-08T06:37:45.866Z,22
2022-11-08T06:40:12.192Z,22
2022-11-08T06:42:38.154Z,28
2022-11-08T06:45:04.324Z,28
2022-11-08T06:47:30.408Z,33
2022-11-08T06:49:56.422Z,33
2022-11-08T06:52:22.683Z,39
2022-11-08T06:54:48.660Z,45
2022-11-08T06:57:14.822Z,50
2022-11-08T06:59:40.745Z,56
2022-11-08T07:02:06.962Z,56
2022-11-08T07:04:31.953Z,61
2022-11-08T07:06:58.199Z,61
2022-11-08T07:09:24.272Z,67
2022-11-08T07:11:50.526Z,61
2022-11-08T07:14:16.316Z,67
2022-11-08T07:16:42.579Z,67
2022-11-08T07:19:08.625Z,73
2022-11-08T07:21:34.738Z,78
2022-11-08T07:24:00.706Z,78
2022-11-08T07:26:26.932Z,84
2022-11-08T07:28:53.039Z,90
2022-11-08T07:31:19.142Z,95
2022-11-08T07:33:45.118Z,101
2022-11-08T07:36:10.199Z,101
2022-11-08T07:38:36.327Z,101
2022-11-08T07:41:02.401Z,101
2022-11-08T07:43:28.486Z,101
2022-11-08T07:45:54.590Z,112
2022-11-08T07:48:20.687Z,118
2022-11-08T07:50:46.784Z,118
2022-11-08T07:53:12.857Z,112
2022-11-08T07:55:38.963Z,106
2022-11-08T07:58:05.071Z,101
2022-11-08T08:00:31.162Z,90
2022-11-08T08:02:57.261Z,90
2022-11-08T08:05:23.362Z,84
2022-11-08T08:07:48.469Z,84
2022-11-08T08:10:14.560Z,95
2022-11-08T08:12:40.664Z,90
2022-11-08T08:15:06.754Z,95
2022-11-08T08:17:32.847Z,101
2022-11-08T08:19:58.931Z,112
2022-11-08T08:22:25.083Z,118
2022-11-08T08:24:51.131Z,135
2022-11-08T08:27:17.232Z,157
2022-11-08T08:29:43.319Z,163
2022-11-08T08:32:09.422Z,168
2022-11-08T08:34:35.509Z,174
2022-11-08T08:37:01.603Z,163
2022-11-08T08:39:26.715Z,151
2022-11-08T08:41:52.827Z,140
2022-11-08T08:44:18.925Z,135
2022-11-08T08:46:45.012Z,135
2022-11-08T08:49:11.099Z,140
2022-11-08T08:51:37.213Z,146
2022-11-08T08:54:03.845Z,146
2022-11-08T08:56:29.389Z,151
2022-11-08T08:58:55.683Z,151
2022-11-08T09:01:21.742Z,157
2022-11-08T09:03:47.745Z,163
2022-11-08T09:06:13.926Z,157
2022-11-08T09:08:40.002Z,174
2022-11-08T09:11:05.109Z,157
2022-11-08T09:13:31.131Z,163
2022-11-08T09:15:57.231Z,168
2022-11-08T09:18:23.279Z,168
2022-11-08T09:20:49.386Z,157
2022-11-08T09:23:15.476Z,146
2022-11-08T09:25:41.564Z,135
2022-11-08T09:28:07.693Z,135
2022-11-08T09:30:33.861Z,129
2022-11-08T09:35:25.990Z,140
2022-11-08T09:37:52.082Z,140
2022-11-08T09:40:18.148Z,140
2022-11-08T09:42:43.315Z,140
2022-11-08T09:45:09.354Z,146
2022-11-08T09:47:35.448Z,140
2022-11-08T09:50:01.567Z,135
2022-11-08T09:52:27.718Z,135
2022-11-08T09:57:19.858Z,146
2022-11-08T09:59:45.929Z,163
2022-11-08T10:02:12.024Z,185
2022-11-08T10:04:38.161Z,202
2022-11-08T10:07:04.338Z,208
2022-11-08T10:09:30.454Z,219
2022-11-08T10:11:56.495Z,213
2022-11-08T10:14:21.520Z,241
2022-11-08T10:16:47.613Z,253
2022-11-08T10:19:13.728Z,265
2022-11-08T10:21:39.797Z,265
2022-11-08T10:24:05.892Z,282
2022-11-08T10:26:32.012Z,299
2022-11-08T10:28:58.091Z,304
2022-11-08T10:31:24.191Z,304
2022-11-08T10:33:50.315Z,287
2022-11-08T10:36:16.413Z,276
2022-11-08T10:38:42.541Z,276
2022-11-08T10:41:08.653Z,276
2022-11-08T10:43:34.707Z,282
2022-11-08T10:45:59.924Z,282
2022-11-08T10:48:25.972Z,276
2022-11-08T10:50:52.016Z,271
2022-11-08T10:53:18.057Z,271
2022-11-08T10:55:44.229Z,271
2022-11-08T10:58:10.324Z,276
2022-11-08T11:00:36.405Z,276
2022-11-08T11:03:02.552Z,271
2022-11-08T11:05:28.609Z,265
2022-11-08T11:07:54.713Z,247
2022-11-08T11:10:20.740Z,236
2022-11-08T11:12:46.906Z,241
2022-11-08T11:15:12.965Z,253
2022-11-08T11:17:38.142Z,265
2022-11-08T11:20:04.140Z,253
2022-11-08T11:22:30.335Z,230
2022-11-08T11:24:56.354Z,219
2022-11-08T11:27:22.434Z,202
2022-11-08T11:29:48.508Z,219
2022-11-08T11:32:13.671Z,219
2022-11-08T11:34:39.812Z,219
2022-11-08T11:37:05.799Z,219
2022-11-08T11:39:31.906Z,225
2022-11-08T11:41:58.047Z,253
2022-11-08T11:44:24.149Z,271
2022-11-08T11:46:50.284Z,276
2022-11-08T11:49:16.277Z,282
2022-11-08T11:51:42.374Z,276
2022-11-08T11:54:08.495Z,287
2022-11-08T11:56:34.562Z,310
2022-11-08T11:59:00.712Z,310
2022-11-08T12:01:26.756Z,304
2022-11-08T12:03:51.881Z,299
2022-11-08T12:06:18.082Z,310
2022-11-08T12:08:44.063Z,321
2022-11-08T12:11:10.206Z,332
2022-11-08T12:13:36.257Z,327
2022-11-08T12:16:02.345Z,349
2022-11-08T12:18:28.450Z,361
2022-11-08T12:20:54.550Z,332
2022-11-08T12:23:20.641Z,316
2022-11-08T12:25:46.744Z,310
2022-11-08T12:28:12.834Z,304
2022-11-08T12:30:38.925Z,310
2022-11-08T12:33:05.130Z,332
2022-11-08T12:35:30.141Z,321
2022-11-08T12:37:56.234Z,299
2022-11-08T12:40:22.330Z,293
2022-11-08T12:42:48.438Z,282
2022-11-08T12:45:14.511Z,282
2022-11-08T12:47:40.605Z,293
2022-11-08T12:50:06.717Z,253
2022-11-08T12:52:32.808Z,219
2022-11-08T12:54:58.961Z,191
2022-11-08T12:57:25.014Z,196
2022-11-08T12:59:51.107Z,213
2022-11-08T13:02:17.225Z,225
2022-11-08T13:04:43.303Z,219
2022-11-08T13:07:08.404Z,213
2022-11-08T13:09:34.478Z,202
2022-11-08T13:12:00.575Z,208
2022-11-08T13:14:26.671Z,219
2022-11-08T13:16:52.862Z,213
2022-11-08T13:19:18.865Z,208
2022-11-08T13:21:45.003Z,191
2022-11-08T13:24:11.041Z,196
2022-11-08T13:26:37.129Z,219
2022-11-08T13:29:03.243Z,225
2022-11-08T13:31:29.416Z,236
2022-11-08T13:33:55.522Z,219
2022-11-08T13:36:21.543Z,219
2022-11-08T13:38:46.708Z,219
2022-11-08T13:41:12.721Z,219
2022-11-08T13:43:38.900Z,219
2022-11-08T13:46:05.050Z,191
2022-11-08T13:48:31.024Z,157
2022-11-08T13:50:57.128Z,140
2022-11-08T13:53:23.192Z,146
2022-11-08T13:55:49.287Z,146
2022-11-08T13:58:15.390Z,140
2022-11-08T14:00:41.597Z,146
2022-11-08T14:03:07.565Z,168
2022-11-08T14:05:33.743Z,185
2022-11-08T14:07:59.787Z,196
2022-11-08T14:10:24.883Z,202
2022-11-08T14:12:50.993Z,180
2022-11-08T14:15:17.159Z,151
2022-11-08T14:17:43.167Z,123
2022-11-08T14:20:09.308Z,112
2022-11-08T14:22:35.341Z,95
2022-11-08T14:25:01.476Z,84
2022-11-08T14:27:27.547Z,73
2022-11-08T14:29:53.663Z,73
2022-11-08T14:32:19.718Z,73
2022-11-08T14:34:45.846Z,78
2022-11-08T14:37:11.936Z,73
2022-11-08T14:39:38.003Z,73
2022-11-08T14:42:03.234Z,73
2022-11-08T14:44:29.262Z,73
2022-11-08T14:46:55.354Z,78
2022-11-08T14:49:21.418Z,78
2022-11-08T14:51:47.502Z,90
2022-11-08T14:54:13.589Z,95
2022-11-08T14:56:39.703Z,101
2022-11-08T14:59:05.841Z,90
2022-11-08T15:01:31.888Z,90
2022-11-08T15:03:58.029Z,84
2022-11-08T15:06:24.104Z,84
2022-11-08T15:08:50.161Z,90
2022-11-08T15:11:16.316Z,90
2022-11-08T15:13:41.371Z,90
2022-11-08T15:16:07.485Z,78
2022-11-08T15:18:33.565Z,73
2022-11-08T15:20:59.666Z,61
2022-11-08T15:23:25.797Z,50
2022-11-08T15:25:51.863Z,45
2022-11-08T15:28:17.943Z,39
2022-11-08T15:30:44.138Z,33
2022-11-08T15:33:10.147Z,28
2022-11-08T15:35:36.224Z,28
2022-11-08T15:38:02.345Z,22
2022-11-08T15:40:28.430Z,16
2022-11-08T15:42:54.554Z,16
2022-11-08T15:45:19.699Z,11
2022-11-08T15:47:45.715Z,11
2022-11-08T15:50:11.828Z,5
2022-11-08T15:52:37.920Z,5
2022-11-08T15:55:04.006Z,5
2022-11-08T15:57:30.127Z,0
2022-11-08T15:59:56.302Z,0
2022-11-08T16:02:22.291Z,0
2022-11-08T16:04:48.382Z,0
2022-11-08T16:07:14.509Z,0
2022-11-08T16:09:40.584Z,0
2022-11-08T16:12:06.694Z,0
2022-11-08T16:14:32.766Z,0
2022-11-08T16:16:57.941Z,0
2022-11-08T16:19:23.979Z,0
2022-11-08T16:21:50.075Z,0
2022-11-08T16:24:16.167Z,0
2022-11-08T16:26:42.344Z,0
2022-11-08T16:29:08.380Z,0
2022-11-08T16:31:34.446Z,0
2022-11-08T16:34:00.557Z,0
2022-11-08T16:36:26.754Z,0
2022-11-08T16:38:52.747Z,0
2022-11-08T16:41:18.937Z,0
2022-11-08T16:43:44.922Z,0
2022-11-08T16:46:11.153Z,0
2022-11-08T16:48:36.169Z,0
2022-11-08T16:51:02.236Z,0
2022-11-08T16:53:28.328Z,0
2022-11-08T16:55:54.439Z,0
2022-11-08T16:58:20.528Z,0
2022-11-08T17:00:46.623Z,0
2022-11-08T17:03:12.719Z,0
2022-11-08T17:05:38.842Z,0
2022-11-08T17:08:04.931Z,0
2022-11-08T17:10:31.026Z,0
2022-11-08T17:12:57.089Z,0
2022-11-08T17:15:23.195Z,0
2022-11-08T17:17:49.281Z,0
2022-11-08T17:20:14.391Z,0
2022-11-08T17:22:40.508Z,0
2022-11-08T17:25:06.599Z,0
2022-11-08T17:27:32.697Z,0
2022-11-08T17:29:58.783Z,0
2022-11-08T17:32:24.980Z,0
2022-11-08T17:34:51.191Z,0
2022-11-08T17:37:17.219Z,0
2022-11-08T17:39:43.339Z,0
2022-11-08T17:42:09.378Z,0
2022-11-08T17:44:35.534Z,0
2022-11-08T17:47:01.529Z,0
2022-11-08T17:49:27.601Z,0
2022-11-08T17:51:52.846Z,0
2022-11-08T17:54:18.934Z,0
2022-11-08T17:56:44.856Z,0
2022-11-08T17:59:11.049Z,0
2022-11-08T18:01:37.111Z,0
2022-11-08T18:04:03.301Z,0
2022-11-08T18:06:29.415Z,0
2022-11-08T18:08:55.534Z,0
2022-11-08T18:11:21.592Z,0
2022-11-08T18:13:47.618Z,0
2022-11-08T18:16:13.822Z,0
2022-11-08T18:18:39.876Z,0
2022-11-08T18:21:05.800Z,0
2022-11-08T18:23:31.046Z,0
2022-11-08T18:25:57.130Z,0
2022-11-08T18:28:23.108Z,0
2022-11-08T18:30:49.379Z,0
2022-11-08T18:33:15.333Z,0
2022-11-08T18:35:41.585Z,0
2022-11-08T18:38:07.637Z,0
2022-11-08T18:40:33.817Z,0
2022-11-08T18:42:59.714Z,0
2022-11-08T18:45:25.967Z,0
2022-11-08T18:47:52.048Z,0
2022-11-08T18:50:17.960Z,0
2022-11-08T18:52:44.243Z,0
2022-11-08T18:55:09.219Z,0
2022-11-08T18:57:35.348Z,0
2022-11-08T19:00:01.580Z,0
2022-11-08T19:02:27.476Z,0
2022-11-08T19:04:53.759Z,0
2022-11-08T19:07:19.846Z,0
2022-11-08T19:09:45.846Z,0
2022-11-08T19:12:11.890Z,0
2022-11-08T19:14:38.030Z,0
2022-11-08T19:17:04.167Z,0
2022-11-08T19:19:30.354Z,0
2022-11-08T19:21:56.392Z,0
2022-11-08T19:24:22.447Z,0
2022-11-08T19:26:47.434Z,0
2022-11-08T19:29:13.641Z,0
2022-11-08T19:31:39.715Z,0
2022-11-08T19:34:05.866Z,0
2022-11-08T19:36:32.000Z,0
2022-11-08T19:38:58.106Z,0
2022-11-08T19:41:23.030Z,0
2022-11-08T19:43:49.272Z,0
2022-11-08T19:46:15.404Z,0
2022-11-08T19:48:41.545Z,0
2022-11-08T19:51:07.561Z,0
2022-11-08T19:53:33.677Z,0
2022-11-08T19:55:59.736Z,0
2022-11-08T19:58:25.722Z,0
2022-11-08T20:00:51.781Z,0
2022-11-08T20:03:17.876Z,0
2022-11-08T20:05:43.979Z,0
2022-11-08T20:08:10.088Z,0
2022-11-08T20:10:36.166Z,0
2022-11-08T20:13:01.288Z,0
2022-11-08T20:15:27.377Z,0
2022-11-08T20:17:53.470Z,0
2022-11-08T20:20:19.554Z,0
2022-11-08T20:22:45.676Z,0
2022-11-08T20:25:11.766Z,0
2022-11-08T20:27:37.858Z,0
2022-11-08T20:30:03.944Z,0
2022-11-08T20:32:30.049Z,0
2022-11-08T20:34:56.138Z,0
2022-11-08T20:37:22.248Z,0
2022-11-08T20:39:48.337Z,0
2022-11-08T20:42:14.428Z,0
2022-11-08T20:44:39.537Z,0
2022-11-08T20:47:05.641Z,0
2022-11-08T20:49:31.723Z,0
2022-11-08T20:51:57.833Z,0
2022-11-08T20:54:23.919Z,0
2022-11-08T20:56:49.997Z,0
2022-11-08T20:59:16.127Z,0
2022-11-08T21:01:42.196Z,0
2022-11-08T21:04:08.288Z,0
2022-11-08T21:06:34.395Z,0
2022-11-08T21:09:00.489Z,0
2022-11-08T21:11:26.575Z,0
2022-11-08T21:13:52.699Z,0
2022-11-08T21:16:17.806Z,0
2022-11-08T21:18:43.896Z,0
2022-11-08T21:21:09.992Z,0
2022-11-08T21:23:36.082Z,0
2022-11-08T21:26:02.196Z,0
2022-11-08T21:28:28.282Z,0
2022-11-08T21:30:54.368Z,0
2022-11-08T21:33:20.453Z,0
2022-11-08T21:35:46.556Z,0
2022-11-08T21:38:12.640Z,0
2022-11-08T21:40:38.773Z,0
2022-11-08T21:43:04.849Z,0
2022-11-08T21:45:30.939Z,0
2022-11-08T21:47:56.053Z,0
2022-11-08T21:50:22.212Z,0
2022-11-08T21:52:48.245Z,0
2022-11-08T21:55:14.358Z,0
2022-11-08T21:57:40.429Z,0
2022-11-08T22:00:06.534Z,0
2022-11-08T22:02:32.635Z,0
2022-11-08T22:04:58.720Z,0
2022-11-08T22:07:24.818Z,0
2022-11-08T22:09:50.907Z,0
2022-11-08T22:12:16.998Z,0
2022-11-08T22:14:43.107Z,0
2022-11-08T22:17:09.184Z,0
2022-11-08T22:19:34.303Z,0
2022-11-08T22:22:00.391Z,0
2022-11-08T22:24:26.512Z,0
2022-11-08T22:26:52.603Z,0
2022-11-08T22:29:18.683Z,0
2022-11-08T22:31:44.787Z,0
2022-11-08T22:34:10.873Z,0
2022-11-08T22:36:36.972Z,0
2022-11-08T22:39:03.084Z,0
2022-11-08T22:41:29.464Z,0
2022-11-08T22:43:55.268Z,0
2022-11-08T22:46:21.354Z,0
2022-11-08T22:48:47.449Z,0
2022-11-08T22:51:12.553Z,0
2022-11-08T22:53:38.669Z,0
2022-11-08T22:56:04.767Z,0
2022-11-08T22:58:30.866Z,0
2022-11-08T23:00:56.956Z,0
2022-11-08T23:03:23.040Z,0
2022-11-08T23:05:49.145Z,0
2022-11-08T23:08:15.229Z,0
2022-11-08T23:10:41.325Z,0
2022-11-08T23:13:07.425Z,0
2022-11-08T23:15:33.526Z,0
2022-11-08T23:17:59.615Z,0
2022-11-08T23:30:14.993Z,0
2022-11-08T23:32:36.184Z,0
2022-11-08T23:35:01.313Z,0
2022-11-08T23:37:27.548Z,0
2022-11-08T23:39:52.669Z,0
2022-11-08T23:42:18.898Z,0
2022-11-08T23:44:43.998Z,0
2022-11-08T23:47:10.239Z,0
2022-11-08T23:49:35.346Z,0
2022-11-08T23:52:01.563Z,0
2022-11-08T23:54:27.648Z,0
2022-11-08T23:56:53.739Z,0
2022-11-08T23:59:19.848Z,0
